Terminal Aerodrome Forecast
Issued by NWS

Home | Current Version | Previous Version | Graphics & Text | Print | Product List | Glossary On
Versions: 1 2 3 4 5 6 7 8 9 10 11 12 13 14 15 16 17 18
000
FTUS43 KMPX 291330 AAA
TAFRNH
TAF AMD
KRNH 291330Z 2914/3012 14005KT 2SM BR OVC002
     FM291600 18004KT 6SM BR BKN007
     FM291800 18003KT P6SM FEW020
     FM300700 18003KT 6SM BR SKC=

USA.gov is the U.S. government's official web portal to all federal, state and local government web resources and services.